Time;durP1;ratioP1;P1;durP2;ratioP2;P2;SDS_P1;SDS_P2;PMS_P1;PMS_P2;Temp;Humidity;BMP_temperature;BMP_pressure;BME280_temperature;BME280_humidity;BME280_pressure;Samples;Min_cycle;Max_cycle;Signal;HPM_P1;HPM_P2
2023/04/16 00:02:18;;;;;;;6.10;2.55;;;7.60;99.90;;;;;;5076691;28;20073;-62
2023/04/16 00:04:44;;;;;;;9.70;2.10;;;7.60;99.90;;;;;;5076224;28;20028;-62
2023/04/16 00:07:10;;;;;;;3.33;0.83;;;7.60;99.90;;;;;;5076175;28;20017;-62
2023/04/16 00:09:35;;;;;;;2.30;1.70;;;7.60;99.90;;;;;;5076184;28;20029;-62
2023/04/16 00:12:01;;;;;;;6.47;2.80;;;7.50;99.90;;;;;;5075026;28;20036;-62
2023/04/16 00:14:28;;;;;;;3.53;1.50;;;7.50;99.90;;;;;;5076128;28;20052;-62
2023/04/16 00:16:54;;;;;;;17.98;3.20;;;7.50;99.90;;;;;;5076270;28;20111;-62
2023/04/16 00:19:20;;;;;;;1.17;1.07;;;7.60;99.90;;;;;;5075649;28;20099;-62
2023/04/16 00:21:45;;;;;;;12.23;3.10;;;7.50;99.90;;;;;;5076463;28;20028;-62
2023/04/16 00:24:11;;;;;;;5.60;2.37;;;7.50;99.90;;;;;;5075607;28;20703;-62
2023/04/16 00:26:37;;;;;;;8.87;2.70;;;7.50;99.90;;;;;;5076025;28;20024;-62
2023/04/16 00:29:02;;;;;;;1.87;1.33;;;7.50;99.90;;;;;;5075302;28;20097;-62
2023/04/16 00:31:30;;;;;;;5.73;2.43;;;7.60;99.90;;;;;;5075220;28;20039;-78
2023/04/16 00:33:56;;;;;;;4.38;1.77;;;7.60;99.90;;;;;;5074544;28;20025;-62
2023/04/16 00:36:23;;;;;;;4.30;2.03;;;7.60;99.90;;;;;;5075849;28;20319;-62
2023/04/16 00:38:50;;;;;;;1.60;1.10;;;7.60;99.90;;;;;;5075586;28;20060;-62
2023/04/16 00:41:15;;;;;;;4.72;1.02;;;7.50;99.90;;;;;;5060066;28;20323;-62
2023/04/16 00:43:41;;;;;;;4.37;1.93;;;7.60;99.90;;;;;;5075804;28;20024;-62
2023/04/16 00:46:07;;;;;;;3.40;2.10;;;7.60;99.90;;;;;;5075617;28;20031;-62
2023/04/16 00:48:35;;;;;;;10.10;3.35;;;7.50;99.90;;;;;;5075545;28;20020;-81
2023/04/16 00:51:03;;;;;;;9.40;2.17;;;7.60;99.90;;;;;;5075450;28;20021;-62
2023/04/16 00:53:30;;;;;;;4.47;2.03;;;7.60;99.90;;;;;;5074164;28;20017;-61
2023/04/16 00:55:56;;;;;;;16.15;3.72;;;7.60;99.90;;;;;;5075575;28;20021;-62
2023/04/16 00:58:22;;;;;;;7.90;3.20;;;7.60;99.90;;;;;;5074922;28;20661;-62
2023/04/16 01:00:49;;;;;;;7.22;1.50;;;7.60;99.90;;;;;;5075475;28;20031;-62
2023/04/16 01:03:15;;;;;;;2.75;1.67;;;7.60;99.90;;;;;;5075064;28;20086;-62
2023/04/16 01:05:41;;;;;;;2.83;1.70;;;7.60;99.90;;;;;;5075244;28;20041;-81
2023/04/16 01:08:13;;;;;;;4.30;1.90;;;7.60;99.90;;;;;;5075076;28;20029;-62
2023/04/16 01:10:39;;;;;;;5.32;2.58;;;7.60;99.90;;;;;;5074914;28;20031;-62
2023/04/16 01:13:06;;;;;;;1.87;1.50;;;7.60;99.90;;;;;;5075484;28;20028;-83
2023/04/16 01:15:32;;;;;;;4.82;2.78;;;7.60;99.90;;;;;;5074753;28;20086;-62
2023/04/16 01:17:57;;;;;;;6.33;2.47;;;7.70;99.90;;;;;;5075097;28;20028;-62
2023/04/16 01:20:23;;;;;;;2.23;1.60;;;7.70;99.90;;;;;;5075269;28;20422;-62
2023/04/16 01:22:49;;;;;;;10.07;3.37;;;7.70;99.90;;;;;;5075193;28;20175;-62
2023/04/16 01:25:15;;;;;;;4.75;3.03;;;7.70;99.90;;;;;;5075020;28;20024;-61
2023/04/16 01:27:41;;;;;;;4.90;2.53;;;7.70;99.90;;;;;;5074668;28;20067;-62
2023/04/16 01:30:07;;;;;;;12.63;3.77;;;7.70;99.90;;;;;;5075276;28;20040;-62
2023/04/16 01:32:33;;;;;;;11.67;2.13;;;7.70;99.90;;;;;;5074665;28;20327;-62
2023/04/16 01:34:58;;;;;;;7.13;2.53;;;7.70;99.90;;;;;;5075469;28;20029;-62
2023/04/16 01:37:24;;;;;;;5.07;2.37;;;7.70;99.90;;;;;;5074589;28;20032;-61
2023/04/16 01:39:49;;;;;;;3.97;2.17;;;7.70;99.90;;;;;;5075147;28;20025;-62
2023/04/16 01:42:15;;;;;;;10.13;2.20;;;7.70;99.90;;;;;;5074662;28;20055;-62
2023/04/16 01:44:42;;;;;;;7.27;3.13;;;7.70;99.90;;;;;;5081053;28;20048;-62
2023/04/16 01:47:08;;;;;;;3.95;2.47;;;7.70;99.90;;;;;;5080100;28;20403;-62
2023/04/16 01:49:34;;;;;;;12.27;3.80;;;7.70;99.90;;;;;;5081723;28;20032;-62
2023/04/16 01:52:00;;;;;;;11.80;3.38;;;7.70;99.90;;;;;;5077852;28;20419;-61
2023/04/16 01:54:26;;;;;;;7.47;3.20;;;7.70;99.90;;;;;;5081449;28;20032;-64
2023/04/16 01:56:51;;;;;;;7.03;2.73;;;7.70;99.90;;;;;;5081344;28;20032;-62
2023/04/16 01:59:17;;;;;;;6.33;2.07;;;7.70;99.90;;;;;;5080968;28;20032;-62
2023/04/16 02:01:43;;;;;;;4.27;1.90;;;7.70;99.90;;;;;;5081361;28;20037;-62
2023/04/16 02:04:09;;;;;;;8.00;2.93;;;7.70;99.90;;;;;;5079804;28;20032;-62
2023/04/16 02:06:35;;;;;;;1.67;1.42;;;7.70;99.90;;;;;;5071970;28;20021;-62
2023/04/16 02:09:00;;;;;;;8.33;3.40;;;7.70;99.90;;;;;;5061115;28;20075;-62
2023/04/16 02:11:26;;;;;;;10.13;2.43;;;7.70;99.90;;;;;;5081167;28;20027;-63
2023/04/16 02:13:52;;;;;;;7.67;3.20;;;7.70;99.90;;;;;;5081251;28;20033;-62
2023/04/16 02:16:17;;;;;;;9.27;3.27;;;7.70;99.90;;;;;;5080825;28;20024;-62
2023/04/16 02:18:43;;;;;;;5.77;2.10;;;7.70;99.90;;;;;;5081008;28;20029;-62
2023/04/16 02:21:09;;;;;;;10.97;3.20;;;7.70;99.90;;;;;;5080599;28;20138;-63
2023/04/16 02:23:36;;;;;;;6.03;1.97;;;7.80;99.90;;;;;;5081179;28;20347;-62
2023/04/16 02:26:02;;;;;;;3.60;2.75;;;7.70;99.90;;;;;;5079706;28;20423;-61
2023/04/16 02:28:28;;;;;;;11.33;3.00;;;7.70;99.90;;;;;;5080503;28;20069;-76
2023/04/16 02:30:53;;;;;;;4.33;2.47;;;7.70;99.90;;;;;;5081265;28;20055;-62
2023/04/16 02:33:19;;;;;;;7.87;3.70;;;7.80;99.90;;;;;;5080678;28;20025;-61
2023/04/16 02:35:47;;;;;;;2.50;2.30;;;7.70;99.90;;;;;;5080993;28;20032;-62
2023/04/16 02:38:13;;;;;;;5.53;2.53;;;7.70;99.90;;;;;;5080560;28;20420;-67
2023/04/16 02:40:39;;;;;;;7.53;2.30;;;7.70;99.90;;;;;;5079884;28;20059;-63
2023/04/16 02:43:05;;;;;;;9.02;3.58;;;7.70;99.90;;;;;;5080866;28;20020;-62
2023/04/16 02:45:31;;;;;;;13.23;4.53;;;7.70;99.90;;;;;;5080901;28;20167;-65
2023/04/16 02:47:57;;;;;;;18.58;3.70;;;7.70;99.90;;;;;;5080873;28;20024;-75
2023/04/16 02:50:22;;;;;;;5.10;2.13;;;7.70;99.90;;;;;;5079526;28;20033;-62
2023/04/16 02:52:50;;;;;;;10.43;2.47;;;7.70;99.90;;;;;;5079669;28;20269;-67
2023/04/16 02:55:17;;;;;;;15.07;4.80;;;7.70;99.90;;;;;;5077293;28;20086;-75
2023/04/16 02:57:43;;;;;;;15.02;4.78;;;7.70;99.90;;;;;;5077624;28;20037;-62
2023/04/16 03:00:09;;;;;;;10.07;4.00;;;7.70;99.90;;;;;;5077697;28;20043;-67
2023/04/16 03:02:35;;;;;;;6.70;2.90;;;7.70;99.90;;;;;;5077417;28;20017;-62
2023/04/16 03:05:01;;;;;;;9.80;4.67;;;7.70;99.90;;;;;;5077412;28;20048;-62
2023/04/16 03:07:26;;;;;;;13.80;5.10;;;7.70;99.90;;;;;;5077158;28;20024;-62
2023/04/16 03:09:52;;;;;;;10.80;5.50;;;7.70;99.90;;;;;;5077380;28;20032;-62
2023/04/16 03:12:18;;;;;;;10.50;4.20;;;7.70;99.90;;;;;;5077312;28;20024;-62
2023/04/16 03:14:43;;;;;;;12.70;6.57;;;7.70;99.90;;;;;;5077414;28;20411;-62
2023/04/16 03:17:09;;;;;;;8.43;5.53;;;7.60;99.90;;;;;;5077105;28;20025;-71
2023/04/16 03:19:35;;;;;;;12.73;6.13;;;7.70;99.90;;;;;;5076986;28;20020;-62
2023/04/16 03:22:01;;;;;;;16.50;6.67;;;7.70;99.90;;;;;;5077367;28;20344;-61
2023/04/16 03:24:27;;;;;;;9.33;4.33;;;7.70;99.90;;;;;;5076937;28;20044;-62
2023/04/16 03:26:52;;;;;;;2.95;2.28;;;7.70;99.90;;;;;;5076984;28;20415;-62
2023/04/16 03:29:18;;;;;;;12.83;5.90;;;7.70;99.90;;;;;;5076494;28;20058;-61
2023/04/16 03:31:43;;;;;;;12.67;5.30;;;7.70;99.90;;;;;;5077148;28;20121;-62
2023/04/16 03:34:09;;;;;;;7.27;4.47;;;7.70;99.90;;;;;;5077169;28;20029;-62
2023/04/16 03:36:35;;;;;;;20.30;7.03;;;7.70;99.90;;;;;;5076740;28;20024;-62
2023/04/16 03:39:00;;;;;;;20.93;5.23;;;7.70;99.90;;;;;;5076927;28;20028;-73
2023/04/16 03:41:26;;;;;;;5.03;2.97;;;7.70;99.90;;;;;;5076400;28;20024;-62
2023/04/16 03:43:52;;;;;;;18.70;6.00;;;7.70;99.90;;;;;;5076865;28;20046;-62
2023/04/16 03:46:17;;;;;;;9.97;5.47;;;7.70;99.90;;;;;;5076391;28;20032;-61
2023/04/16 03:48:43;;;;;;;23.60;6.73;;;7.70;99.90;;;;;;5076640;28;20025;-80
2023/04/16 03:51:09;;;;;;;15.80;6.07;;;7.70;99.90;;;;;;5077005;28;20046;-62
2023/04/16 03:53:34;;;;;;;17.93;7.27;;;7.70;99.90;;;;;;5076208;28;20327;-62
2023/04/16 03:56:00;;;;;;;14.20;4.50;;;7.70;99.90;;;;;;5076730;28;20378;-62
2023/04/16 03:58:26;;;;;;;13.77;5.20;;;7.70;99.90;;;;;;5076608;28;20028;-62
2023/04/16 04:00:54;;;;;;;5.77;2.40;;;7.70;99.90;;;;;;5076112;28;20039;-62
2023/04/16 04:03:19;;;;;;;23.25;8.10;;;7.70;99.90;;;;;;5076438;28;20697;-61
2023/04/16 04:05:45;;;;;;;21.80;8.50;;;7.70;99.90;;;;;;5075853;28;20034;-81
2023/04/16 04:08:11;;;;;;;19.50;7.10;;;7.70;99.90;;;;;;5076416;28;20054;-62
2023/04/16 04:10:37;;;;;;;25.83;7.30;;;7.70;99.90;;;;;;5076084;28;20327;-62
2023/04/16 04:13:04;;;;;;;15.37;5.70;;;7.70;99.90;;;;;;5076344;28;20033;-62
2023/04/16 04:15:30;;;;;;;20.15;5.95;;;7.70;99.90;;;;;;5076482;28;20033;-62
2023/04/16 04:17:56;;;;;;;32.73;10.23;;;7.70;99.90;;;;;;5062115;28;20032;-62
2023/04/16 04:20:22;;;;;;;4.10;3.37;;;7.70;99.90;;;;;;5075911;28;20292;-62
2023/04/16 04:22:49;;;;;;;28.95;10.07;;;7.70;99.90;;;;;;5075556;28;20070;-63
2023/04/16 04:25:16;;;;;;;18.27;5.43;;;7.70;99.90;;;;;;5071910;28;20032;-62
2023/04/16 04:27:41;;;;;;;;;;;7.70;99.90;;;;;;5072084;28;20292;-62
2023/04/16 04:30:07;;;;;;;32.30;9.07;;;7.70;99.90;;;;;;5075959;28;19992;-62
2023/04/16 04:32:33;;;;;;;38.72;11.20;;;7.70;99.90;;;;;;5075190;28;20317;-62
2023/04/16 04:35:00;;;;;;;11.33;4.90;;;7.70;99.90;;;;;;5076240;28;20039;-62
2023/04/16 04:37:26;;;;;;;11.25;3.85;;;7.70;99.90;;;;;;5076052;28;20032;-62
2023/04/16 04:39:52;;;;;;;23.47;8.67;;;7.70;99.90;;;;;;5075228;28;20054;-79
2023/04/16 04:42:19;;;;;;;27.30;12.30;;;7.70;99.90;;;;;;5075571;28;20036;-61
2023/04/16 04:44:45;;;;;;;18.88;7.55;;;7.70;99.90;;;;;;5075664;28;20304;-62
2023/04/16 04:47:11;;;;;;;32.70;8.95;;;7.70;99.90;;;;;;5075697;28;20051;-62
2023/04/16 04:49:36;;;;;;;22.53;5.47;;;7.70;99.90;;;;;;5074162;28;20068;-62
2023/04/16 04:52:02;;;;;;;29.17;10.77;;;7.70;99.90;;;;;;5075272;28;20033;-62
2023/04/16 04:54:30;;;;;;;27.13;9.90;;;7.70;99.90;;;;;;5075590;28;20082;-62
2023/04/16 04:56:55;;;;;;;39.13;8.05;;;7.80;99.90;;;;;;5074641;28;20033;-69
2023/04/16 04:59:22;;;;;;;23.83;8.27;;;7.70;99.90;;;;;;5075528;28;20037;-62
2023/04/16 05:01:48;;;;;;;23.42;7.72;;;7.70;99.90;;;;;;5075489;28;20099;-62
2023/04/16 05:04:14;;;;;;;38.38;12.57;;;7.80;99.90;;;;;;5074973;28;20032;-62
2023/04/16 05:06:40;;;;;;;27.63;9.83;;;7.80;99.90;;;;;;5075258;28;20029;-78
2023/04/16 05:09:10;;;;;;;24.40;10.30;;;7.80;99.90;;;;;;5074913;28;20078;-61
2023/04/16 05:11:40;;;;;;;23.38;6.28;;;7.80;99.90;;;;;;5075385;28;20035;-61
2023/04/16 05:14:05;;;;;;;24.10;8.85;;;7.80;99.90;;;;;;5074851;28;20745;-67
2023/04/16 05:16:31;;;;;;;22.37;9.03;;;7.80;99.90;;;;;;5075343;28;20033;-61
2023/04/16 05:18:57;;;;;;;31.37;11.23;;;7.80;99.90;;;;;;5074047;28;20435;-62
2023/04/16 05:21:23;;;;;;;26.23;10.83;;;7.80;99.90;;;;;;5075165;28;20096;-62
2023/04/16 05:23:49;;;;;;;8.73;5.13;;;7.80;99.90;;;;;;5075056;28;20050;-62
2023/04/16 05:26:15;;;;;;;29.00;9.87;;;7.80;99.90;;;;;;5074869;28;20028;-62
2023/04/16 05:28:40;;;;;;;23.97;8.03;;;7.80;99.90;;;;;;5074801;28;20040;-62
2023/04/16 05:31:06;;;;;;;28.30;8.80;;;7.80;99.90;;;;;;5074814;28;20032;-63
2023/04/16 05:33:33;;;;;;;34.03;8.73;;;7.80;99.90;;;;;;5074932;28;20104;-62
2023/04/16 05:35:58;;;;;;;24.63;8.88;;;7.80;99.90;;;;;;5074692;28;20032;-61
2023/04/16 05:38:24;;;;;;;38.13;11.43;;;7.80;99.90;;;;;;5075230;28;20024;-62
2023/04/16 05:40:50;;;;;;;17.00;7.77;;;7.80;99.90;;;;;;5074856;28;20024;-62
2023/04/16 05:43:16;;;;;;;9.33;3.50;;;7.80;99.90;;;;;;5074363;28;20307;-62
2023/04/16 05:45:41;;;;;;;17.20;7.80;;;7.80;99.90;;;;;;5074955;28;20017;-62
2023/04/16 05:48:11;;;;;;;21.33;5.30;;;7.90;99.90;;;;;;5074423;28;20055;-62
2023/04/16 05:50:37;;;;;;;18.52;7.72;;;7.90;99.90;;;;;;5074933;28;20060;-62
2023/04/16 05:53:06;;;;;;;18.30;7.20;;;7.90;99.90;;;;;;5074520;28;20032;-62
2023/04/16 05:55:32;;;;;;;27.25;7.95;;;7.90;99.90;;;;;;5074682;28;20028;-62
2023/04/16 05:57:58;;;;;;;17.75;7.10;;;7.90;99.90;;;;;;5074711;28;20035;-62
2023/04/16 06:00:24;;;;;;;7.00;4.17;;;7.90;99.90;;;;;;5074295;28;20029;-62
2023/04/16 06:02:50;;;;;;;14.90;7.53;;;7.90;99.90;;;;;;5073726;28;20464;-62
2023/04/16 06:05:16;;;;;;;23.33;9.47;;;8.00;99.90;;;;;;5074671;28;20033;-66
2023/04/16 06:07:41;;;;;;;15.13;5.20;;;7.90;99.90;;;;;;5074300;28;20323;-62
2023/04/16 06:10:07;;;;;;;29.17;10.00;;;7.90;99.90;;;;;;5074773;28;20108;-62
2023/04/16 06:12:33;;;;;;;17.63;5.97;;;7.90;99.90;;;;;;5074104;28;20017;-62
2023/04/16 06:15:00;;;;;;;17.53;7.23;;;7.90;99.90;;;;;;5074897;28;20063;-62
2023/04/16 06:17:26;;;;;;;24.02;7.65;;;8.00;99.90;;;;;;5074171;28;20060;-62
2023/04/16 06:19:51;;;;;;;9.87;5.53;;;8.00;99.90;;;;;;5074663;28;20097;-62
2023/04/16 06:22:17;;;;;;;14.40;6.50;;;8.00;99.90;;;;;;5074754;28;20066;-78
2023/04/16 06:24:43;;;;;;;17.27;6.17;;;8.00;99.90;;;;;;5074115;28;20354;-61
2023/04/16 06:27:09;;;;;;;17.13;6.77;;;8.00;99.90;;;;;;5074763;28;20350;-62
2023/04/16 06:29:35;;;;;;;14.33;7.60;;;8.00;99.90;;;;;;5073904;28;20052;-62
2023/04/16 06:32:02;;;;;;;14.20;7.23;;;8.00;99.90;;;;;;5078359;28;20024;-62
2023/04/16 06:34:28;;;;;;;20.45;6.07;;;8.00;99.90;;;;;;5077680;28;20028;-62
2023/04/16 06:36:54;;;;;;;11.93;5.07;;;8.00;99.90;;;;;;5078374;28;20017;-62
2023/04/16 06:39:20;;;;;;;25.13;9.73;;;8.00;99.90;;;;;;5077627;28;20037;-61
2023/04/16 06:41:47;;;;;;;20.48;5.88;;;8.00;99.90;;;;;;5078125;28;20078;-62
2023/04/16 06:44:13;;;;;;;16.27;9.30;;;8.00;99.90;;;;;;5078075;28;20028;-61
2023/04/16 06:46:39;;;;;;;19.85;7.95;;;8.00;99.90;;;;;;5077793;28;20471;-61
2023/04/16 06:49:05;;;;;;;19.80;9.10;;;8.00;99.90;;;;;;5078094;28;20120;-62
2023/04/16 06:51:31;;;;;;;12.20;5.07;;;8.10;99.90;;;;;;5077699;28;20032;-62
2023/04/16 06:53:56;;;;;;;7.13;4.27;;;8.00;99.90;;;;;;5077845;28;20032;-61
2023/04/16 06:56:22;;;;;;;17.27;7.17;;;8.00;99.90;;;;;;5077643;28;20037;-62
2023/04/16 06:58:48;;;;;;;17.43;7.33;;;8.10;99.90;;;;;;5077236;28;20028;-61
2023/04/16 07:01:14;;;;;;;7.18;4.03;;;8.00;99.90;;;;;;5077902;28;20032;-62
2023/04/16 07:03:40;;;;;;;19.30;7.93;;;8.10;99.90;;;;;;5076057;28;20154;-62
2023/04/16 07:06:05;;;;;;;11.30;5.57;;;8.00;99.90;;;;;;5077595;28;20066;-69
2023/04/16 07:08:31;;;;;;;21.73;6.27;;;8.10;99.90;;;;;;5077606;28;20099;-62
2023/04/16 07:10:57;;;;;;;14.00;5.77;;;8.10;99.90;;;;;;5076952;28;20044;-62
2023/04/16 07:13:23;;;;;;;15.57;6.37;;;8.10;99.90;;;;;;5077433;28;20028;-62
2023/04/16 07:15:48;;;;;;;9.47;4.47;;;8.10;99.90;;;;;;5076948;28;20021;-62
2023/04/16 07:18:14;;;;;;;17.90;5.60;;;8.10;99.90;;;;;;5077617;28;20024;-62
2023/04/16 07:20:40;;;;;;;14.70;6.83;;;8.10;99.90;;;;;;5077058;28;20020;-62
2023/04/16 07:23:06;;;;;;;14.17;6.23;;;8.10;99.90;;;;;;5077469;28;20365;-62
2023/04/16 07:25:31;;;;;;;11.57;5.37;;;8.10;99.90;;;;;;5077371;28;20346;-62
2023/04/16 07:27:57;;;;;;;13.03;5.70;;;8.10;99.90;;;;;;5076966;28;20025;-62
2023/04/16 07:30:23;;;;;;;9.67;3.87;;;8.10;99.90;;;;;;5077272;28;20103;-62
2023/04/16 07:32:50;;;;;;;16.92;5.40;;;8.10;99.90;;;;;;5076952;28;20052;-62
2023/04/16 07:35:16;;;;;;;7.22;2.08;;;8.10;99.90;;;;;;5076917;28;20036;-65
2023/04/16 07:37:42;;;;;;;11.83;5.37;;;8.20;99.90;;;;;;5076686;28;20090;-62
2023/04/16 07:40:08;;;;;;;10.77;4.47;;;8.10;99.90;;;;;;5076846;28;20402;-62
2023/04/16 07:42:34;;;;;;;17.20;7.00;;;8.20;99.90;;;;;;5076409;28;20412;-61
2023/04/16 07:45:00;;;;;;;12.77;7.03;;;8.20;99.90;;;;;;5076335;28;20046;-61
2023/04/16 07:47:26;;;;;;;15.63;7.67;;;8.20;99.90;;;;;;5076867;28;20332;-67
2023/04/16 07:49:52;;;;;;;16.43;5.63;;;8.20;99.90;;;;;;5076382;28;20029;-79
2023/04/16 07:52:18;;;;;;;19.92;5.85;;;8.20;99.90;;;;;;5076748;28;20107;-61
2023/04/16 07:54:44;;;;;;;16.30;5.22;;;8.10;99.90;;;;;;5076118;28;20035;-61
2023/04/16 07:57:11;;;;;;;14.73;5.40;;;8.20;99.90;;;;;;5076519;28;20020;-62
2023/04/16 07:59:36;;;;;;;17.77;6.78;;;8.10;99.90;;;;;;5076475;28;20416;-63
2023/04/16 08:02:03;;;;;;;13.17;6.27;;;8.20;99.90;;;;;;5076270;28;20028;-62
2023/04/16 08:04:28;;;;;;;7.35;4.43;;;8.20;99.90;;;;;;5076413;28;20016;-62
2023/04/16 08:06:54;;;;;;;5.90;2.83;;;8.20;99.90;;;;;;5076452;28;20036;-75
2023/04/16 08:09:23;;;;;;;13.40;5.33;;;8.20;99.90;;;;;;5075831;28;20339;-62
2023/04/16 08:11:48;;;;;;;7.80;4.07;;;8.20;99.90;;;;;;5076170;28;20318;-62
2023/04/16 08:14:15;;;;;;;9.53;5.07;;;8.30;99.90;;;;;;5076120;28;20115;-62
2023/04/16 08:16:41;;;;;;;10.30;3.88;;;8.30;99.90;;;;;;5076158;28;20024;-62
2023/04/16 08:19:07;;;;;;;12.03;5.47;;;8.30;99.90;;;;;;5075392;28;20035;-62
2023/04/16 08:21:33;;;;;;;12.33;6.47;;;8.30;99.90;;;;;;5076246;28;20138;-61
2023/04/16 08:23:59;;;;;;;15.87;6.10;;;8.20;99.90;;;;;;5076029;28;20044;-61
2023/04/16 08:26:25;;;;;;;6.40;2.67;;;8.30;99.90;;;;;;5076029;28;20285;-62
2023/04/16 08:28:50;;;;;;;9.67;4.57;;;8.30;99.90;;;;;;5075798;28;20041;-62
2023/04/16 08:31:16;;;;;;;19.73;4.33;;;8.30;99.90;;;;;;5075422;28;20026;-62
2023/04/16 08:33:42;;;;;;;10.80;5.10;;;8.30;99.90;;;;;;5076197;28;20025;-77
2023/04/16 08:36:08;;;;;;;19.23;6.47;;;8.40;99.90;;;;;;5075375;28;20320;-62
2023/04/16 08:38:34;;;;;;;14.60;5.00;;;8.40;99.90;;;;;;5074834;28;20311;-62
2023/04/16 08:41:04;;;;;;;7.57;3.97;;;8.40;99.90;;;;;;5075669;28;20037;-62
2023/04/16 08:43:35;;;;;;;12.32;3.17;;;8.50;99.90;;;;;;5062636;28;20289;-62
2023/04/16 08:46:03;;;;;;;9.77;3.70;;;8.60;99.90;;;;;;5075729;28;20435;-62
2023/04/16 08:48:32;;;;;;;11.75;4.15;;;8.50;99.90;;;;;;5075349;28;20025;-62
2023/04/16 08:50:59;;;;;;;13.85;4.22;;;8.60;99.90;;;;;;5075629;28;20103;-62
2023/04/16 08:53:36;;;;;;;7.45;1.90;;;8.60;99.90;;;;;;5074253;28;20102;-62
2023/04/16 08:56:04;;;;;;;9.25;4.70;;;8.60;99.90;;;;;;5075251;28;20419;-77
2023/04/16 08:58:33;;;;;;;13.38;4.95;;;8.60;99.90;;;;;;5075724;28;20297;-61
2023/04/16 09:01:02;;;;;;;11.13;6.47;;;8.60;99.90;;;;;;5061778;28;20029;-61
2023/04/16 09:03:30;;;;;;;9.02;5.25;;;8.70;99.90;;;;;;5075426;28;20411;-78
2023/04/16 09:05:58;;;;;;;14.00;5.55;;;8.70;99.90;;;;;;5074713;28;20075;-62
2023/04/16 09:08:28;;;;;;;12.40;4.93;;;8.60;99.90;;;;;;5075196;28;20430;-61
2023/04/16 09:10:58;;;;;;;15.35;4.82;;;8.70;99.90;;;;;;5074755;28;20021;-61
2023/04/16 09:13:24;;;;;;;8.77;5.28;;;8.70;99.90;;;;;;5075308;28;20047;-62
2023/04/16 09:15:54;;;;;;;10.15;4.28;;;8.70;99.90;;;;;;5074333;28;20032;-62
2023/04/16 09:18:20;;;;;;;9.13;4.20;;;8.70;99.90;;;;;;5075173;28;20024;-62
2023/04/16 09:20:50;;;;;;;9.73;4.72;;;8.70;99.90;;;;;;5074334;28;20365;-62
2023/04/16 09:23:16;;;;;;;10.60;4.72;;;8.70;99.90;;;;;;5075224;28;20029;-62
2023/04/16 09:25:42;;;;;;;11.00;5.03;;;8.70;99.90;;;;;;5075040;28;20021;-61
2023/04/16 09:28:09;;;;;;;15.93;5.20;;;8.80;99.90;;;;;;5061021;28;20450;-63
2023/04/16 09:30:36;;;;;;;16.27;6.38;;;8.80;99.90;;;;;;5073971;28;20094;-62
2023/04/16 09:33:21;;;;;;;16.33;6.50;;;8.70;99.90;;;;;;5074643;28;20405;-62
2023/04/16 09:35:48;;;;;;;7.88;4.35;;;8.80;99.90;;;;;;5074722;28;20029;-61
2023/04/16 09:38:14;;;;;;;11.15;4.65;;;8.80;99.90;;;;;;5074664;28;20411;-61
2023/04/16 09:40:40;;;;;;;12.27;4.57;;;8.70;99.90;;;;;;5074806;28;20036;-62
2023/04/16 09:43:11;;;;;;;13.77;6.27;;;8.70;99.90;;;;;;5074722;28;20024;-62
2023/04/16 09:45:53;;;;;;;15.95;6.38;;;8.70;99.90;;;;;;5074797;28;20036;-62
2023/04/16 09:48:29;;;;;;;15.30;6.55;;;8.70;99.90;;;;;;5074641;28;20033;-62
2023/04/16 09:50:55;;;;;;;12.15;6.13;;;8.70;99.90;;;;;;5074969;28;20035;-62
2023/04/16 09:53:29;;;;;;;12.77;5.77;;;8.70;99.90;;;;;;5074618;28;20024;-62
2023/04/16 09:55:59;;;;;;;11.73;5.10;;;8.70;99.90;;;;;;5074477;28;20319;-61
2023/04/16 09:58:25;;;;;;;5.40;2.30;;;8.80;99.90;;;;;;5075194;28;20074;-62
2023/04/16 10:01:11;;;;;;;16.13;7.50;;;8.80;99.90;;;;;;5074608;28;20078;-61
2023/04/16 10:03:40;;;;;;;11.90;5.45;;;8.80;99.90;;;;;;5061922;28;20056;-62
2023/04/16 10:06:12;;;;;;;21.30;6.20;;;8.90;99.90;;;;;;5078683;28;20314;-66
2023/04/16 10:08:42;;;;;;;17.30;6.10;;;8.90;99.90;;;;;;5065119;28;20297;-76
2023/04/16 10:11:08;;;;;;;16.30;5.35;;;9.00;99.90;;;;;;5078528;28;20070;-62
2023/04/16 10:13:34;;;;;;;14.17;6.57;;;8.90;99.90;;;;;;5077662;28;20370;-62
2023/04/16 10:16:00;;;;;;;16.30;5.33;;;8.90;99.90;;;;;;5078482;28;20020;-62
2023/04/16 10:18:27;;;;;;;22.37;5.97;;;8.90;99.90;;;;;;5078291;28;20505;-62
2023/04/16 10:20:53;;;;;;;19.63;7.10;;;8.90;99.90;;;;;;5078253;28;20024;-62
2023/04/16 10:23:20;;;;;;;11.70;5.20;;;8.90;99.90;;;;;;5078231;28;20024;-61
2023/04/16 10:25:48;;;;;;;20.27;7.53;;;8.90;99.90;;;;;;5078343;28;20103;-62
2023/04/16 10:28:15;;;;;;;18.17;7.03;;;8.90;99.90;;;;;;5077951;28;20458;-61
2023/04/16 10:30:51;;;;;;;14.38;5.88;;;8.90;99.90;;;;;;5068944;28;20032;-61
2023/04/16 10:33:21;;;;;;;15.13;5.75;;;8.90;99.90;;;;;;5078272;28;20047;-61
2023/04/16 10:35:47;;;;;;;17.02;7.47;;;8.90;99.90;;;;;;5063752;28;20016;-61
2023/04/16 10:38:46;;;;;;;38.42;6.53;;;9.00;99.90;;;;;;5078237;28;20085;-62
2023/04/16 10:41:12;;;;;;;21.05;8.18;;;9.00;99.90;;;;;;5066382;28;20504;-61
2023/04/16 10:43:45;;;;;;;20.33;7.87;;;9.10;99.90;;;;;;5077651;28;20025;-62
2023/04/16 10:46:25;;;;;;;19.55;6.97;;;9.00;99.90;;;;;;5078087;28;20021;-61
2023/04/16 10:48:58;;;;;;;20.35;6.82;;;9.00;99.90;;;;;;5073139;28;20020;-62
2023/04/16 10:51:33;;;;;;;16.00;6.75;;;9.00;99.90;;;;;;5076800;28;20412;-62
2023/04/16 10:54:26;;;;;;;22.58;8.10;;;9.10;99.90;;;;;;5077434;28;20021;-62
2023/04/16 10:56:55;;;;;;;19.55;9.00;;;9.10;99.90;;;;;;5069087;28;20035;-62
2023/04/16 10:59:21;;;;;;;21.25;7.53;;;9.10;99.90;;;;;;5077839;28;20032;-62
2023/04/16 11:02:00;;;;;;;19.02;8.40;;;9.20;99.90;;;;;;5076753;28;20315;-62
2023/04/16 11:04:37;;;;;;;20.05;7.28;;;9.20;99.90;;;;;;5063424;28;20056;-61
2023/04/16 11:07:06;;;;;;;19.25;9.07;;;9.20;99.90;;;;;;5077246;28;20073;-62
2023/04/16 11:10:01;;;;;;;18.38;7.97;;;9.20;99.90;;;;;;5077424;28;20056;-62
2023/04/16 11:12:45;;;;;;;25.83;9.25;;;9.10;99.90;;;;;;5077322;28;20097;-62
2023/04/16 11:15:11;;;;;;;22.02;8.90;;;9.10;99.90;;;;;;5076127;28;20024;-62
2023/04/16 11:17:40;;;;;;;32.50;10.23;;;9.10;99.90;;;;;;5075404;28;20051;-62
2023/04/16 11:20:15;;;;;;;24.30;8.65;;;9.10;99.90;;;;;;5075757;28;20029;-77
2023/04/16 11:22:41;;;;;;;24.35;10.75;;;9.10;99.90;;;;;;5076322;28;20027;-62
2023/04/16 11:25:07;;;;;;;23.75;10.88;;;9.10;99.90;;;;;;5076548;28;20485;-62
2023/04/16 11:27:33;;;;;;;21.08;6.22;;;9.20;99.90;;;;;;5076441;28;20388;-79
2023/04/16 11:30:01;;;;;;;22.97;9.97;;;9.30;99.90;;;;;;5076262;28;20135;-61
2023/04/16 11:32:30;;;;;;;30.20;11.40;;;9.30;99.90;;;;;;5076337;28;20043;-62
2023/04/16 11:34:55;;;;;;;22.40;8.40;;;9.30;99.90;;;;;;5076022;28;20036;-62
2023/04/16 11:37:32;;;;;;;23.00;8.63;;;9.30;99.90;;;;;;5076407;28;20024;-62
2023/04/16 11:39:58;;;;;;;24.02;7.53;;;9.30;99.90;;;;;;5074555;28;20119;-62
2023/04/16 11:42:25;;;;;;;13.57;6.53;;;9.30;99.90;;;;;;5076387;28;20099;-63
2023/04/16 11:44:56;;;;;;;24.95;9.38;;;9.30;99.90;;;;;;5075697;28;20356;-62
2023/04/16 11:47:23;;;;;;;22.67;9.43;;;9.30;99.90;;;;;;5076159;28;20027;-62
2023/04/16 11:49:49;;;;;;;21.02;8.82;;;9.40;99.90;;;;;;5075668;28;20021;-62
2023/04/16 11:52:26;;;;;;;18.48;7.75;;;9.30;99.90;;;;;;5076002;28;20035;-62
2023/04/16 11:54:52;;;;;;;21.65;8.88;;;9.30;99.90;;;;;;5075591;28;20036;-62
2023/04/16 11:57:31;;;;;;;17.37;8.43;;;9.30;99.90;;;;;;5075852;28;20313;-61
2023/04/16 11:59:58;;;;;;;16.02;7.07;;;9.40;99.90;;;;;;5075803;28;20068;-62
2023/04/16 12:03:00;;;;;;;24.35;9.23;;;9.50;99.90;;;;;;5075236;28;20078;-61
2023/04/16 12:05:46;;;;;;;21.55;7.75;;;9.50;99.90;;;;;;5071054;28;20051;-62
2023/04/16 12:08:26;;;;;;;17.92;8.73;;;9.60;99.90;;;;;;5076348;28;20044;-62
2023/04/16 12:10:54;;;;;;;13.48;7.20;;;9.50;99.90;;;;;;5075389;28;20032;-62
2023/04/16 12:13:20;;;;;;;28.27;9.50;;;9.50;99.90;;;;;;5074976;28;20033;-62
2023/04/16 12:15:53;;;;;;;25.87;7.67;;;9.60;99.90;;;;;;5076063;28;20028;-62
2023/04/16 12:18:21;;;;;;;24.90;9.13;;;9.70;99.90;;;;;;5076024;28;20021;-62
2023/04/16 12:20:49;;;;;;;18.42;8.68;;;9.80;99.90;;;;;;5075783;28;20412;-62
2023/04/16 12:23:26;;;;;;;17.40;6.40;;;9.80;99.90;;;;;;5076231;28;20028;-62
2023/04/16 12:25:52;;;;;;;18.55;7.68;;;9.80;99.90;;;;;;5075851;28;20021;-62
2023/04/16 12:28:32;;;;;;;18.25;7.80;;;9.90;99.90;;;;;;5075519;28;20048;-76
2023/04/16 12:30:58;;;;;;;15.07;6.75;;;9.90;99.90;;;;;;5075937;28;20029;-62
2023/04/16 12:33:24;;;;;;;21.73;7.60;;;9.90;99.90;;;;;;5075884;28;20447;-62
2023/04/16 12:35:50;;;;;;;16.50;5.87;;;10.00;99.90;;;;;;5074798;28;20032;-63
2023/04/16 12:38:16;;;;;;;22.90;9.17;;;10.00;99.90;;;;;;5074219;28;20081;-74
2023/04/16 12:40:42;;;;;;;28.27;9.53;;;10.10;99.90;;;;;;5076061;28;20040;-62
2023/04/16 12:43:09;;;;;;;19.90;9.05;;;10.20;99.90;;;;;;5075289;28;20025;-62
2023/04/16 12:45:35;;;;;;;17.25;7.18;;;10.10;99.90;;;;;;5075684;28;20442;-77
2023/04/16 12:48:01;;;;;;;25.92;9.15;;;10.20;99.90;;;;;;5075247;28;20021;-62
2023/04/16 12:50:27;;;;;;;18.90;7.90;;;10.20;99.90;;;;;;5075748;28;20036;-62
2023/04/16 12:52:55;;;;;;;9.32;4.03;;;10.20;99.90;;;;;;5075710;28;20051;-76